Flight Track Log - Related Links

Times and Time Zones

All times are in EDT time to prevent confusion due to time zone crossing. See the SWA476 flight status page for this flight to view local times or setup timezone preferences in your user account.

Time Position Orientation Groundspeed Altitude Reporting Facility
EDT Latitude Longitude Course Direction KTS MPH feet Rate Location/Type
Sun 09:38:47 PM 38.6169 -121.3786 103° East 260 299 8,500  Level Oakland Center
Sun 09:39:48 PM 38.6008 -121.2717 101° East 296 341 11,600 2,976 Climbing Oakland Center
Sun 09:40:50 PM 38.5806 -121.1436 101° East 339 390 14,600 2,780 Climbing Oakland Center
Sun 09:41:51 PM 38.5608 -121.0117 101° East 366 421 17,300 2,262 Climbing Oakland Center
Sun 09:42:52 PM 38.5383 -120.8706 101° East 394 453 19,200 2,146 Climbing Oakland Center
Sun 09:43:54 PM 38.5139 -120.7211 102° East 421 484 21,700 2,390 Climbing Oakland Center
Sun 09:44:55 PM 38.4892 -120.5714 102° East 427 491 24,100 2,262 Climbing Oakland Center
Sun 09:45:56 PM 38.4650 -120.4200 101° East 435 501 26,300 1,869 Climbing Oakland Center
Sun 09:46:57 PM 38.4383 -120.2636 102° East 449 517 27,900 1,512 Climbing Oakland Center
Sun 09:47:59 PM 38.3806 -120.1158 116° Southeast 460 529 29,400 1,415 Climbing Oakland Center
Sun 09:49:00 PM 38.3147 -119.9711 120° Southeast 471 542 30,800 1,525 Climbing Oakland Center
Sun 09:50:01 PM 38.2492 -119.8228 119° Southeast 479 551 32,500 1,073 Climbing Oakland Center
Sun 09:51:03 PM 38.1836 -119.6764 120° Southeast 480 552 33,000 244 Climbing Oakland Center
Sun 09:52:04 PM 38.1033 -119.4978 120° Southeast 483 556 33,000  Level Oakland Center
Sun 09:53:05 PM 38.0358 -119.3478 120° Southeast 486 559 33,000  Level Oakland Center
Sun 09:54:06 PM 37.9678 -119.2011 120° Southeast 486 559 33,000  Level Oakland Center
Sun 09:55:08 PM 37.9022 -119.0578 120° Southeast 486 559 33,000  Level Oakland Center
Sun 09:56:09 PM 37.8303 -118.9044 121° Southeast 488 562 33,000  Level Oakland Center
Sun 09:57:10 PM 37.7664 -118.7639 120° Southeast 485 558 33,000  Level Oakland Center
Sun 09:58:11 PM 37.6983 -118.6181 120° Southeast 485 558 33,000  Level Oakland Center
Sun 09:59:12 PM 37.6314 -118.4733 120° Southeast 483 556 33,000  Level Oakland Center
Sun 10:00:14 PM 37.5503 -118.3025 121° Southeast 478 550 33,000  Level Oakland Center
Sun 10:01:15 PM 37.4836 -118.1611 121° Southeast 475 547 33,000  Level Oakland Center
Sun 10:02:16 PM 37.4167 -118.0183 121° Southeast 475 547 33,000  Level Oakland Center
Sun 10:03:07 PM 37.3642 -117.9064 121° Southeast 471 542 33,000  Level Los Angeles Center
Sun 10:04:19 PM 37.2833 -117.7397 121° Southeast 468 539 33,000  Level Oakland Center
Sun 10:05:20 PM 37.2150 -117.5969 121° Southeast 473 544 33,000  Level Oakland Center
Sun 10:06:21 PM 37.1458 -117.4544 121° Southeast 477 549 33,000  Level Oakland Center
Sun 10:07:14 PM 37.0772 -117.3106 121° Southeast 480 552 33,000  Level Los Angeles Center
Sun 10:08:16 PM 37.0083 -117.1681 121° Southeast 480 552 33,000 -98 Level Los Angeles Center
Sun 10:09:17 PM 36.9383 -117.0261 122° Southeast 480 552 32,800 -537 Descending Los Angeles Center
Sun 10:10:19 PM 36.8722 -116.8892 121° Southeast 466 536 31,900 -968 Descending Los Angeles Center
Sun 10:11:21 PM 36.8053 -116.7542 122° Southeast 462 532 30,800 -1,016 Descending Los Angeles Center
Sun 10:12:23 PM 36.7233 -116.6358 131° Southeast 454 522 29,800 -1,415 Descending Los Angeles Center
Sun 10:13:24 PM 36.6408 -116.5181 131° Southeast 451 519 27,900 -2,293 Descending Los Angeles Center
Sun 10:14:26 PM 36.5428 -116.3775 131° Southeast 450 518 25,100 -2,419 Descending Los Angeles Center
Sun 10:15:28 PM 36.4697 -116.2758 132° Southeast 435 501 22,900 -2,274 Descending Los Angeles Center
Sun 10:16:30 PM 36.3819 -116.1503 131° Southeast 430 495 20,400 -2,480 Descending Los Angeles Center
Sun 10:16:43 PM 36.3639 -116.1264 133° Southeast 425 489 19,800 -2,164 Descending Los Angeles Center
Sun 10:17:31 PM 36.3078 -116.0456 131° Southeast 407 468 18,200 -2,291 Descending Los Angeles Center
Sun 10:17:38 PM 36.2944 -116.0314 139° Southeast 411 473 17,700 -2,032 Descending Los Angeles Center
Sun 10:18:33 PM 36.2300 -115.9386 131° Southeast 388 447 16,100 -1,600 Descending Los Angeles Center
Sun 10:18:38 PM 36.2242 -115.9314 135° Southeast 377 434 16,100 -1,065 Level Los Angeles Center
Sun 10:19:35 PM 36.1806 -115.8361 120° Southeast 352 405 15,000 -1,164 Descending Los Angeles Center
Sun 10:19:45 PM 36.1747 -115.8197 114° Southeast 342 394 14,800 -1,548 Descending Los Angeles Center
Sun 10:20:37 PM 36.1458 -115.7289 111° Southeast 335 386 13,400 -1,574 Descending Los Angeles Center
Sun 10:20:46 PM 36.1414 -115.7133 109° East 328 377 13,200 -1,105 Descending Los Angeles Center
Sun 10:21:53 PM 36.1039 -115.5981 112° Southeast 310 357 12,000 -632 Descending Los Angeles Center
Sun 10:22:40 PM 36.0778 -115.5203 113° Southeast 313 360 12,000  Level Los Angeles Center
Sun 10:22:42 PM 36.0753 -115.5142 117° Southeast 305 351 12,000  Level Los Angeles Center
Sun 10:23:42 PM 36.0439 -115.4158 112° Southeast 309 356 12,000  Level Los Angeles Center
Sun 10:23:43 PM 36.0433 -115.4156 158° South 309 356 12,000 -97 Level Los Angeles Center
Sun 10:24:44 PM 36.0258 -115.3136 102° East 302 348 11,900 -90 Descending Los Angeles Center
Sun 10:24:50 PM 36.0261 -115.3069 87° East 304 350 11,900 90 Level Los Angeles Center
Sun 10:25:51 PM 36.0189 -115.2136 95° East 237 273 12,000 52 Climbing Los Angeles Center
Sun 10:26:46 PM 36.0106 -115.1447 98° East 210 242 12,000  Level Los Angeles Center
Sun 10:26:47 PM 36.0114 -115.1439 39° Northeast 224 258 12,000 -1,000 Level Los Angeles Center
Sun 10:27:46 PM 35.9575 -115.1489 184° South 198 228 11,000 -968 Descending Los Angeles Center
Sun 10:27:49 PM 35.9567 -115.1483 152° Southeast 209 241 11,000 -1,754 Level Los Angeles Center
Sun 10:28:51 PM 35.9119 -115.1853 214° Southwest 196 226 9,100 -1,781 Descending Los Angeles Center
Sun 10:28:53 PM 35.9119 -115.1878 270° West 196 226 9,100 -1,770 Level Los Angeles Center
Sun 10:29:52 PM 35.9208 -115.2458 281° West 203 234 7,300 -1,770 Descending Los Angeles Center
Sun 10:29:54 PM 35.9208 -115.2486 270° West 198 228 7,300 -1,548 Level Los Angeles Center
Sun 10:30:54 PM 35.9664 -115.2356 13° North 178 205 5,700 -1,617 Descending Los Angeles Center
Sun 10:31:49 PM 35.9992 -115.2122 30° Northeast 148 170 4,200 -1,645 Descending Los Angeles Center
Sun 10:31:56 PM 36.0058 -115.2086 24° Northeast 157 181 4,000 -1,082 Descending Los Angeles Center
Sun 10:32:50 PM 36.0358 -115.1919 24° Northeast 139 160 3,100 -968 Descending Los Angeles Center
Sun 10:32:58 PM 36.0417 -115.1889 23° Northeast 146 168 3,000 -787 Descending Los Angeles Center
Sun 10:33:51 PM 36.0706 -115.1728 24° Northeast 142 163 2,300 -885 Descending Los Angeles Center
Sun 10:33:59 PM 36.0761 -115.1683 33° Northeast 140 161 2,100 -1,500 Descending Los Angeles Center
Sun 10:35:00 PM 36.0801 -115.1523 95° East  Level Estimated
Sun 10:42:00 PM 36.0801 -115.1523 260° West  Level Estimated

Login

Don't have an account? Register now (free) for customized features, flight alerts, and more!